createdAt,value
2022-08-19T00:02:06.818Z,23.38
2022-08-19T00:05:34.697Z,12.55
2022-08-19T00:09:03.443Z,13.60
2022-08-19T00:12:29.349Z,11.73
2022-08-19T00:15:55.542Z,15.25
2022-08-19T00:19:22.689Z,16.73
2022-08-19T00:26:15.898Z,11.57
2022-08-19T00:29:42.074Z,9.57
2022-08-19T00:33:08.694Z,15.27
2022-08-19T00:36:34.708Z,16.23
2022-08-19T00:40:01.256Z,13.93
2022-08-19T00:43:28.288Z,15.52
2022-08-19T00:46:58.053Z,19.08
2022-08-19T00:50:31.489Z,13.57
2022-08-19T00:53:59.879Z,13.07
2022-08-19T00:57:30.871Z,12.13
2022-08-19T01:00:57.926Z,11.60
2022-08-19T01:04:23.957Z,12.05
2022-08-19T01:07:52.103Z,8.68
2022-08-19T01:11:20.028Z,13.23
2022-08-19T01:14:46.768Z,13.32
2022-08-19T01:18:14.343Z,14.45
2022-08-19T01:21:45.405Z,13.95
2022-08-19T01:25:14.825Z,16.38
2022-08-19T01:28:43.100Z,10.90
2022-08-19T01:32:32.257Z,8.68
2022-08-19T01:36:31.153Z,12.43
2022-08-19T01:39:57.949Z,13.13
2022-08-19T01:43:23.768Z,12.57
2022-08-19T01:46:49.816Z,11.88
2022-08-19T01:50:18.299Z,11.15
2022-08-19T01:53:48.095Z,9.25
2022-08-19T01:57:15.502Z,13.60
2022-08-19T02:00:43.316Z,8.15
2022-08-19T02:04:09.292Z,10.35
2022-08-19T02:07:35.594Z,11.15
2022-08-19T02:11:05.509Z,7.43
2022-08-19T02:14:31.624Z,6.45
2022-08-19T02:17:57.438Z,8.38
2022-08-19T02:21:24.338Z,14.60
2022-08-19T02:24:50.499Z,11.02
2022-08-19T02:28:18.746Z,11.00
2022-08-19T02:31:45.792Z,8.98
2022-08-19T02:35:12.093Z,11.27
2022-08-19T02:38:38.679Z,10.25
2022-08-19T02:42:05.722Z,10.48
2022-08-19T02:45:36.876Z,6.43
2022-08-19T02:49:08.790Z,8.63
2022-08-19T02:52:36.470Z,9.38
2022-08-19T02:56:07.266Z,8.23
2022-08-19T02:59:33.655Z,7.82
2022-08-19T03:03:01.644Z,11.07
2022-08-19T03:06:28.194Z,8.02
2022-08-19T03:09:54.361Z,7.75
2022-08-19T03:13:22.600Z,8.30
2022-08-19T03:16:51.564Z,8.93
2022-08-19T03:20:19.125Z,11.00
2022-08-19T03:23:45.332Z,11.02
2022-08-19T03:27:11.206Z,12.77
2022-08-19T03:30:37.614Z,9.18
2022-08-19T03:34:08.866Z,10.45
2022-08-19T03:37:35.989Z,13.07
2022-08-19T03:44:38.942Z,11.45
2022-08-19T03:48:05.257Z,10.38
2022-08-19T03:51:33.131Z,11.87
2022-08-19T03:55:00.777Z,8.73
2022-08-19T03:58:27.138Z,7.38
2022-08-19T04:01:54.439Z,12.63
2022-08-19T04:05:20.332Z,8.73
2022-08-19T04:08:55.374Z,13.60
2022-08-19T04:12:22.642Z,14.05
2022-08-19T04:19:15.403Z,11.20
2022-08-19T04:22:43.513Z,12.48
2022-08-19T04:26:13.815Z,14.73
2022-08-19T04:29:40.745Z,16.02
2022-08-19T04:33:06.645Z,12.70
2022-08-19T04:36:52.615Z,15.48
2022-08-19T04:40:39.193Z,17.90
2022-08-19T04:44:05.633Z,17.67
2022-08-19T04:47:47.967Z,21.70
2022-08-19T04:51:18.331Z,19.83
2022-08-19T04:54:44.116Z,9.60
2022-08-19T04:58:11.903Z,12.52
2022-08-19T05:01:38.789Z,14.43
2022-08-19T05:05:07.765Z,17.27
2022-08-19T05:08:35.019Z,18.48
2022-08-19T05:12:01.268Z,22.52
2022-08-19T05:15:27.616Z,35.07
2022-08-19T05:19:12.917Z,29.90
2022-08-19T05:22:40.121Z,18.73
2022-08-19T05:26:12.425Z,17.55
2022-08-19T05:29:38.410Z,26.70
2022-08-19T05:33:04.698Z,29.25
2022-08-19T05:36:35.497Z,24.35
2022-08-19T05:40:02.904Z,26.33
2022-08-19T05:43:28.909Z,21.50
2022-08-19T05:46:54.769Z,32.53
2022-08-19T05:50:22.547Z,13.85
2022-08-19T05:53:48.342Z,31.02
2022-08-19T05:57:15.420Z,30.40
2022-08-19T06:00:41.433Z,25.77
2022-08-19T06:04:07.718Z,25.85
2022-08-19T06:11:15.430Z,20.63
2022-08-19T06:14:42.788Z,26.10
2022-08-19T06:18:08.643Z,31.05
2022-08-19T06:21:35.459Z,16.15
2022-08-19T06:25:01.433Z,26.55
2022-08-19T06:28:27.304Z,23.27
2022-08-19T06:31:54.767Z,25.73
2022-08-19T06:35:20.796Z,18.48
2022-08-19T06:38:46.759Z,30.97
2022-08-19T06:42:17.870Z,21.53
2022-08-19T06:45:45.618Z,24.02
2022-08-19T06:49:15.245Z,18.95
2022-08-19T06:52:44.609Z,21.83
2022-08-19T06:56:10.639Z,12.82
2022-08-19T06:59:39.826Z,22.80
2022-08-19T07:03:08.755Z,24.52
2022-08-19T07:06:43.683Z,18.13
2022-08-19T07:10:12.124Z,12.48
2022-08-19T07:13:39.853Z,19.63
2022-08-19T07:17:10.068Z,21.00
2022-08-19T07:20:38.815Z,26.02
2022-08-19T07:24:07.165Z,26.75
2022-08-19T07:27:39.763Z,31.25
2022-08-19T07:31:09.052Z,32.38
2022-08-19T07:34:38.948Z,27.90
2022-08-19T07:38:06.281Z,37.30
2022-08-19T07:41:32.701Z,24.67
2022-08-19T07:44:59.760Z,21.85
2022-08-19T07:48:27.152Z,25.08
2022-08-19T07:52:03.371Z,22.92
2022-08-19T07:55:41.583Z,27.77
2022-08-19T07:59:10.541Z,23.00
2022-08-19T08:02:36.471Z,27.83
2022-08-19T08:06:22.555Z,35.45
2022-08-19T08:09:49.797Z,21.95
2022-08-19T08:13:21.837Z,31.33
2022-08-19T08:16:47.769Z,27.50
2022-08-19T08:20:14.781Z,21.30
2022-08-19T08:23:44.700Z,21.40
2022-08-19T08:27:11.375Z,21.63
2022-08-19T08:30:45.234Z,22.67
2022-08-19T08:34:12.605Z,18.75
2022-08-19T08:37:44.881Z,19.15
2022-08-19T08:41:47.770Z,26.42
2022-08-19T08:45:42.549Z,15.30
2022-08-19T08:49:36.746Z,19.80
2022-08-19T08:53:09.599Z,14.23
2022-08-19T08:56:35.681Z,19.98
2022-08-19T09:00:15.495Z,21.17
2022-08-19T09:03:43.705Z,13.95
2022-08-19T09:07:35.350Z,29.20
2022-08-19T09:11:42.807Z,19.83
2022-08-19T09:15:33.319Z,16.77
2022-08-19T09:19:06.444Z,21.88
2022-08-19T09:22:33.062Z,25.23
2022-08-19T09:25:58.942Z,26.65
2022-08-19T09:29:25.312Z,22.85
2022-08-19T09:32:56.736Z,13.90
2022-08-19T09:36:33.678Z,25.73
2022-08-19T09:40:03.146Z,17.58
2022-08-19T09:43:33.520Z,16.52
2022-08-19T09:47:11.469Z,26.67
2022-08-19T09:50:51.669Z,27.90
2022-08-19T09:54:23.624Z,18.73
2022-08-19T09:57:51.296Z,22.17
2022-08-19T10:01:24.613Z,24.58
2022-08-19T10:05:11.058Z,19.42
2022-08-19T10:08:38.200Z,18.23
2022-08-19T10:12:06.144Z,19.25
2022-08-19T10:15:32.178Z,21.63
2022-08-19T10:19:13.191Z,20.45
2022-08-19T10:22:39.833Z,22.30
2022-08-19T10:26:07.251Z,12.65
2022-08-19T10:29:35.598Z,17.83
2022-08-19T10:33:05.414Z,24.98
2022-08-19T10:36:37.884Z,18.48
2022-08-19T10:40:22.101Z,14.77
2022-08-19T10:47:21.798Z,22.05
2022-08-19T10:51:10.979Z,11.82
2022-08-19T10:55:08.466Z,19.85
2022-08-19T10:58:36.677Z,20.20
2022-08-19T11:02:03.303Z,15.63
2022-08-19T11:05:36.573Z,14.57
2022-08-19T11:09:07.161Z,19.80
2022-08-19T11:12:34.296Z,14.23
2022-08-19T11:16:20.983Z,11.98
2022-08-19T11:19:50.095Z,12.82
2022-08-19T11:23:15.958Z,14.88
2022-08-19T11:26:42.667Z,12.00
2022-08-19T11:30:13.111Z,14.23
2022-08-19T11:33:39.813Z,11.98
2022-08-19T11:37:07.024Z,13.45
2022-08-19T11:40:34.692Z,9.88
2022-08-19T11:44:00.628Z,16.77
2022-08-19T11:47:27.474Z,12.27
2022-08-19T11:50:57.701Z,16.77
2022-08-19T11:54:24.013Z,13.60
2022-08-19T11:57:50.022Z,10.27
2022-08-19T12:04:44.487Z,12.02
2022-08-19T12:08:10.608Z,19.85
2022-08-19T12:11:38.167Z,18.40
2022-08-19T12:15:05.675Z,14.70
2022-08-19T12:18:31.884Z,12.13
2022-08-19T12:22:02.729Z,19.50
2022-08-19T12:25:32.033Z,10.80
2022-08-19T12:29:00.218Z,16.02
2022-08-19T12:32:29.642Z,11.32
2022-08-19T12:35:55.767Z,13.20
2022-08-19T12:39:21.786Z,14.15
2022-08-19T12:46:16.929Z,14.40
2022-08-19T12:49:53.507Z,18.05
2022-08-19T12:53:26.267Z,18.42
2022-08-19T12:56:56.750Z,9.63
2022-08-19T13:00:23.323Z,10.90
2022-08-19T13:03:51.565Z,11.98
2022-08-19T13:07:17.555Z,9.57
2022-08-19T13:10:43.700Z,9.20
2022-08-19T13:14:10.089Z,15.00
2022-08-19T13:17:36.504Z,9.75
2022-08-19T13:21:08.822Z,8.32
2022-08-19T13:24:37.889Z,11.60
2022-08-19T13:28:04.445Z,14.10
2022-08-19T13:31:50.473Z,24.88
2022-08-19T13:35:18.166Z,16.17
2022-08-19T13:38:46.559Z,12.48
2022-08-19T13:42:14.675Z,18.48
2022-08-19T13:45:40.677Z,16.77
2022-08-19T13:52:32.162Z,19.47
2022-08-19T13:55:58.561Z,8.75
2022-08-19T13:59:26.408Z,11.57
2022-08-19T14:02:53.849Z,14.40
2022-08-19T14:06:20.446Z,12.60
2022-08-19T14:09:46.421Z,14.02
2022-08-19T14:13:20.800Z,13.25
2022-08-19T14:16:46.840Z,10.40
2022-08-19T14:23:46.262Z,18.58
2022-08-19T14:27:14.075Z,21.85
2022-08-19T14:30:40.234Z,18.95
2022-08-19T14:34:06.614Z,14.48
2022-08-19T14:37:32.391Z,13.98
2022-08-19T14:41:22.856Z,18.67
2022-08-19T14:44:51.125Z,10.85
2022-08-19T14:48:19.357Z,15.00
2022-08-19T14:51:48.102Z,8.43
2022-08-19T14:55:14.009Z,10.85
2022-08-19T14:58:43.818Z,16.52
2022-08-19T15:02:34.297Z,18.65
2022-08-19T15:05:58.833Z,14.48
2022-08-19T15:09:25.822Z,12.00
2022-08-19T15:12:52.604Z,15.23
2022-08-19T15:16:20.412Z,20.98
2022-08-19T15:19:48.742Z,15.65
2022-08-19T15:23:15.732Z,18.83
2022-08-19T15:26:43.976Z,22.80
2022-08-19T15:30:11.326Z,25.70
2022-08-19T15:33:37.963Z,19.40
2022-08-19T15:37:06.150Z,17.00
2022-08-19T15:40:32.636Z,23.15
2022-08-19T15:43:59.894Z,19.88
2022-08-19T15:47:35.177Z,18.67
2022-08-19T15:51:11.903Z,24.90
2022-08-19T15:54:37.762Z,15.23
2022-08-19T15:58:30.213Z,19.85
2022-08-19T16:02:16.686Z,22.52
2022-08-19T16:06:02.073Z,26.30
2022-08-19T16:09:32.388Z,26.80
2022-08-19T16:12:59.508Z,20.50
2022-08-19T16:16:33.943Z,23.33
2022-08-19T16:20:05.049Z,28.27
2022-08-19T16:23:31.539Z,32.90
2022-08-19T16:26:57.483Z,34.35
2022-08-19T16:30:24.832Z,32.40
2022-08-19T16:33:52.223Z,33.30
2022-08-19T16:37:18.940Z,24.15
2022-08-19T16:40:54.138Z,24.20
2022-08-19T16:44:21.282Z,27.08
2022-08-19T16:47:50.862Z,30.58
2022-08-19T16:51:18.548Z,32.67
2022-08-19T16:54:44.736Z,30.13
2022-08-19T16:58:11.078Z,39.22
2022-08-19T17:01:38.219Z,43.10
2022-08-19T17:05:04.362Z,29.20
2022-08-19T17:08:32.213Z,32.05
2022-08-19T17:11:59.017Z,32.17
2022-08-19T17:15:27.139Z,40.65
2022-08-19T17:18:53.977Z,37.67
2022-08-19T17:22:24.449Z,39.90
2022-08-19T17:25:51.274Z,34.60
2022-08-19T17:29:19.929Z,41.03
2022-08-19T17:32:45.939Z,34.92
2022-08-19T17:36:11.864Z,34.00
2022-08-19T17:39:39.779Z,35.85
2022-08-19T17:43:08.747Z,35.70
2022-08-19T17:46:35.513Z,34.05
2022-08-19T17:50:01.389Z,33.90
2022-08-19T17:53:27.312Z,45.97
2022-08-19T17:56:54.695Z,28.58
2022-08-19T18:00:21.979Z,42.25
2022-08-19T18:03:50.109Z,41.15
2022-08-19T18:07:21.763Z,34.90
2022-08-19T18:10:48.194Z,39.00
2022-08-19T18:14:14.312Z,41.28
2022-08-19T18:17:40.324Z,35.00
2022-08-19T18:21:07.890Z,41.33
2022-08-19T18:24:33.908Z,32.25
2022-08-19T18:28:01.390Z,32.08
2022-08-19T18:31:29.304Z,31.20
2022-08-19T18:34:55.645Z,34.17
2022-08-19T18:38:41.015Z,26.85
2022-08-19T18:42:32.108Z,32.03
2022-08-19T18:46:16.363Z,22.30
2022-08-19T18:49:43.533Z,21.42
2022-08-19T18:53:09.914Z,18.73
2022-08-19T18:56:37.949Z,23.23
2022-08-19T19:00:05.139Z,15.77
2022-08-19T19:03:35.405Z,17.88
2022-08-19T19:07:01.420Z,20.05
2022-08-19T19:10:27.300Z,26.88
2022-08-19T19:13:53.505Z,24.00
2022-08-19T19:17:26.106Z,19.42
2022-08-19T19:20:52.044Z,33.85
2022-08-19T19:24:20.601Z,29.77
2022-08-19T19:27:48.937Z,38.08
2022-08-19T19:31:17.713Z,29.60
2022-08-19T19:34:43.805Z,40.95
2022-08-19T19:38:09.686Z,33.13
2022-08-19T19:41:37.332Z,30.27
2022-08-19T19:45:04.154Z,36.67
2022-08-19T19:51:55.871Z,42.15
2022-08-19T19:55:21.904Z,35.73
2022-08-19T19:58:50.609Z,33.03
2022-08-19T20:02:17.762Z,49.90
2022-08-19T20:05:43.588Z,31.17
2022-08-19T20:09:10.903Z,33.08
2022-08-19T20:12:41.714Z,33.22
2022-08-19T20:16:07.743Z,38.60
2022-08-19T20:19:37.521Z,41.60
2022-08-19T20:23:04.195Z,41.72
2022-08-19T20:26:33.716Z,34.92
2022-08-19T20:30:00.226Z,35.20
2022-08-19T20:33:26.067Z,31.38
2022-08-19T20:36:52.291Z,34.17
2022-08-19T20:40:21.659Z,33.00
2022-08-19T20:43:48.207Z,31.48
2022-08-19T20:47:14.639Z,28.27
2022-08-19T20:50:40.653Z,34.65
2022-08-19T20:54:14.584Z,37.37
2022-08-19T20:57:40.418Z,34.20
2022-08-19T21:01:10.885Z,47.63
2022-08-19T21:04:40.242Z,32.33
2022-08-19T21:08:06.186Z,36.33
2022-08-19T21:11:32.492Z,45.65
2022-08-19T21:14:58.691Z,39.22
2022-08-19T21:18:27.007Z,53.60
2022-08-19T21:21:54.346Z,39.42
2022-08-19T21:25:20.411Z,37.80
2022-08-19T21:28:46.371Z,40.03
2022-08-19T21:32:14.260Z,37.20
2022-08-19T21:35:41.773Z,40.65
2022-08-19T21:39:07.896Z,32.67
2022-08-19T21:42:33.818Z,41.70
2022-08-19T21:45:59.773Z,40.55
2022-08-19T21:49:25.659Z,40.97
2022-08-19T21:52:51.838Z,40.13
2022-08-19T21:56:18.154Z,36.83
2022-08-19T21:59:44.353Z,44.50
2022-08-19T22:03:11.232Z,37.45
2022-08-19T22:06:37.112Z,41.45
2022-08-19T22:10:06.492Z,30.67
2022-08-19T22:13:40.166Z,28.17
2022-08-19T22:17:06.510Z,33.72
2022-08-19T22:20:32.599Z,43.93
2022-08-19T22:24:00.803Z,40.93
2022-08-19T22:27:30.095Z,34.92
2022-08-19T22:30:56.493Z,40.22
2022-08-19T22:34:24.142Z,33.78
2022-08-19T22:37:51.987Z,42.10
2022-08-19T22:41:18.412Z,30.17
2022-08-19T22:44:44.360Z,38.00
2022-08-19T22:48:11.667Z,34.25
2022-08-19T22:52:04.399Z,49.00
2022-08-19T22:55:30.969Z,31.98
2022-08-19T22:58:56.888Z,38.17
2022-08-19T23:02:28.368Z,46.45
2022-08-19T23:05:56.377Z,37.75
2022-08-19T23:09:23.454Z,35.50
2022-08-19T23:12:49.866Z,27.83
2022-08-19T23:16:17.677Z,38.78
2022-08-19T23:19:43.487Z,35.38
2022-08-19T23:23:10.473Z,34.53
2022-08-19T23:30:21.134Z,30.90
2022-08-19T23:33:51.529Z,28.45
2022-08-19T23:37:18.319Z,29.27
2022-08-19T23:40:44.709Z,33.22
2022-08-19T23:44:14.670Z,34.83
2022-08-19T23:47:41.453Z,34.75
2022-08-19T23:51:09.808Z,38.25
2022-08-19T23:54:43.618Z,40.17
2022-08-19T23:58:11.069Z,29.98
